»·PEaware :: N129DQ KPDX-KSEA

N129DQ :: KPDX-KSEA

FLIGHT INFORMATION

Flight Status: Arrived
Operator: Privately registered:
United States
More flights under this callsign
Pilot: Doug M. (13043)
Aircraft: MOONEY M-20K/M ENCORE BRAVO
(M20T)
More flights by this aircraft type
Origin: KPDX Portland Intl
United States
Destination: KSEA Seattle-Tacoma Intl
United States
More flights between these airports :: More routes between these airports
Route: +PTLD1 BTG V495 SEA
File this flight plan on PilotEdge
Remarks:
Altitude:
(Current/Filed)
6,000ft
Speed:
(Current/Filed)
180kts
Departed: 02-Sep-18 09:18 PM
Arrived: 02-Sep-18 10:01 PM
Distance/Time
Traveled:
111nm/0:42
Distance/Time
To Go:
Arrived

Flight Plot

Page will automatically refresh every two minutes.

Flight plan parsing failed; only flown route is shown


Map Options




Map Legend


Flown Route
Filed Route
Departure Airport
Arrival Airport
Navaid (VOR, NDB)
Fix

Horizontal Profiles

Position Reports

Time Latitude Longitude Heading Altitude Ground
Speed
02-Sep-18 21:09 45.581029 -122.592957 55 19ft 0kts
02-Sep-18 21:10 45.581029 -122.592957 55 19ft 0kts
02-Sep-18 21:11 45.581029 -122.592957 55 19ft 0kts
02-Sep-18 21:12 45.581029 -122.592957 55 19ft 0kts
02-Sep-18 21:13 45.581029 -122.592957 55 19ft 0kts
02-Sep-18 21:14 45.581029 -122.592957 55 19ft 0kts
02-Sep-18 21:15 45.581029 -122.592957 55 19ft 0kts
02-Sep-18 21:16 45.578918 -122.585712 62 19ft 0kts
02-Sep-18 21:17 45.578918 -122.585712 62 19ft 0kts
02-Sep-18 21:18 45.578918 -122.585712 62 19ft 0kts
02-Sep-18 21:19 45.582153 -122.588149 298 19ft 67kts
02-Sep-18 21:20 45.595903 -122.627231 296 829ft 126kts
02-Sep-18 21:21 45.611914 -122.674184 296 2038ft 136kts
02-Sep-18 21:22 45.634751 -122.712276 6 3209ft 143kts
02-Sep-18 21:23 45.664567 -122.679546 35 4319ft 151kts
02-Sep-18 21:24 45.698375 -122.643029 32 5520ft 154kts
02-Sep-18 21:25 45.736218 -122.604033 32 6001ft 190kts
02-Sep-18 21:26 45.787683 -122.585709 4 5997ft 194kts
02-Sep-18 21:27 45.840071 -122.576898 4 5997ft 187kts
02-Sep-18 21:28 45.890093 -122.568735 4 5996ft 185kts
02-Sep-18 21:29 45.941067 -122.560426 4 5996ft 185kts
02-Sep-18 21:30 45.985559 -122.553163 4 5997ft 184kts
02-Sep-18 21:31 46.034617 -122.545143 4 5998ft 184kts
02-Sep-18 21:32 46.085119 -122.536872 4 5999ft 184kts
02-Sep-18 21:33 46.112889 -122.532323 4 6000ft 184kts
02-Sep-18 21:34 46.161137 -122.524403 4 6000ft 185kts
02-Sep-18 21:35 46.211243 -122.516160 4 6000ft 185kts
02-Sep-18 21:36 46.261783 -122.507827 4 6004ft 184kts
02-Sep-18 21:37 46.312748 -122.499411 4 6019ft 184kts
02-Sep-18 21:38 46.363222 -122.491061 4 6033ft 184kts
02-Sep-18 21:39 46.413645 -122.482703 4 6045ft 184kts
02-Sep-18 21:40 46.464589 -122.474239 4 6039ft 185kts
02-Sep-18 21:41 46.515866 -122.465705 3 6032ft 186kts
02-Sep-18 21:42 46.567394 -122.457116 3 6026ft 188kts
02-Sep-18 21:43 46.619435 -122.448431 3 6027ft 188kts
02-Sep-18 21:44 46.671088 -122.439790 4 6019ft 186kts
02-Sep-18 21:45 46.722328 -122.431204 4 6020ft 185kts
02-Sep-18 21:46 46.772536 -122.423366 4 6019ft 184kts
02-Sep-18 21:47 46.822557 -122.415569 4 6018ft 184kts
02-Sep-18 21:48 46.873151 -122.408156 2 6017ft 184kts
02-Sep-18 21:49 46.923810 -122.402719 11 6015ft 184kts
02-Sep-18 21:50 46.973625 -122.389409 5 6013ft 183kts
02-Sep-18 21:51 47.024031 -122.380138 2 6011ft 183kts
02-Sep-18 21:52 47.074402 -122.370206 4 5819ft 183kts
02-Sep-18 21:53 47.119787 -122.348062 28 5283ft 186kts
02-Sep-18 21:54 47.147319 -122.322916 28 4930ft 184kts
02-Sep-18 21:55 47.195942 -122.313658 359 4310ft 179kts
02-Sep-18 21:56 47.244281 -122.312941 359 4011ft 170kts
02-Sep-18 21:57 47.293427 -122.312486 359 3177ft 182kts
02-Sep-18 21:58 47.343875 -122.312036 0 2192ft 179kts
02-Sep-18 22:00 47.382744 -122.311718 1 1418ft 104kts
02-Sep-18 22:01 47.410538 -122.311490 1 892ft 106kts
02-Sep-18 22:02 47.437865 -122.311258 1 378ft 85kts
02-Sep-18 22:03 47.445410 -122.310115 141 329ft 17kts
02-Sep-18 22:04 47.445575 -122.306287 356 329ft 18kts
02-Sep-18 22:05 47.450754 -122.305021 4 329ft 14kts
02-Sep-18 22:06 47.452051 -122.303999 271 329ft 0kts
02-Sep-18 22:07 47.452051 -122.303999 271 329ft 0kts
02-Sep-18 22:08 47.452051 -122.303999 271 329ft 0kts
02-Sep-18 22:09 47.452051 -122.303999 271 329ft 0kts
02-Sep-18 22:10 47.452051 -122.303999 271 329ft 0kts
02-Sep-18 22:11 47.452051 -122.303999 271 329ft 0kts
02-Sep-18 22:12 47.452051 -122.303999 271 329ft 0kts
02-Sep-18 22:13 47.431741 -122.306735 268 329ft 0kts

Navigation Log

Ident Type
Flight plan parsing failed, navigation log unavailable